Time;durP1;ratioP1;P1;durP2;ratioP2;P2;SDS_P1;SDS_P2;PMS_P1;PMS_P2;Temp;Humidity;BMP_temperature;BMP_pressure;BME280_temperature;BME280_humidity;BME280_pressure;Samples;Min_cycle;Max_cycle;Signal;HPM_P1;HPM_P2
2022/07/13 00:02:23;;;;;;;4.45;1.70;;;24.40;82.90;;;;;;4972635;28;20498;-88
2022/07/13 00:04:48;;;;;;;6.93;1.73;;;24.40;83.50;;;;;;4972467;28;20030;-91
2022/07/13 00:07:14;;;;;;;3.40;1.90;;;24.30;85.30;;;;;;4986861;28;20470;-90
2022/07/13 00:09:49;;;;;;;5.22;2.08;;;24.20;85.80;;;;;;4971764;28;20031;-89
2022/07/13 00:12:15;;;;;;;5.75;1.75;;;24.30;84.30;;;;;;4970274;28;20443;-90
2022/07/13 00:14:40;;;;;;;4.28;1.77;;;24.30;80.50;;;;;;4970826;28;20039;-93
2022/07/13 00:17:06;;;;;;;4.70;1.73;;;24.20;82.70;;;;;;4971945;28;20023;-93
2022/07/13 00:19:32;;;;;;;2.15;1.80;;;24.20;81.00;;;;;;4971730;28;20039;-88
2022/07/13 00:21:57;;;;;;;9.85;2.15;;;24.10;83.10;;;;;;4986865;28;20082;-89
2022/07/13 00:24:26;;;;;;;6.00;2.00;;;24.00;90.10;;;;;;4987400;28;20066;-91
2022/07/13 00:26:51;;;;;;;3.58;1.95;;;24.00;90.00;;;;;;4972079;28;20023;-91
2022/07/13 00:29:17;;;;;;;3.67;1.90;;;24.00;85.00;;;;;;4970423;28;20034;-89
2022/07/13 00:31:43;;;;;;;11.75;1.88;;;23.90;84.40;;;;;;4971499;28;20027;-93
2022/07/13 00:34:08;;;;;;;5.47;1.90;;;23.90;84.10;;;;;;4970769;28;20061;-90
2022/07/13 00:36:35;;;;;;;6.00;2.13;;;23.90;84.80;;;;;;4969677;28;20035;-92
2022/07/13 00:39:00;;;;;;;7.38;2.22;;;23.90;84.30;;;;;;4971727;28;20035;-91
2022/07/13 00:41:26;;;;;;;7.45;1.83;;;23.80;84.90;;;;;;4971741;28;20023;-88
2022/07/13 00:43:52;;;;;;;3.20;1.77;;;23.70;86.20;;;;;;4987137;28;20027;-93
2022/07/13 00:46:18;;;;;;;4.35;1.98;;;;;;;;;;4971623;28;20019;-91
2022/07/13 00:48:44;;;;;;;7.40;1.90;;;23.70;84.80;;;;;;4971539;28;20487;-90
2022/07/13 00:51:10;;;;;;;10.48;2.03;;;23.60;89.70;;;;;;4971055;28;20030;-93
2022/07/13 00:53:38;;;;;;;4.80;2.20;;;23.60;89.20;;;;;;4971038;28;20390;-91
2022/07/13 00:56:05;;;;;;;3.60;1.88;;;23.50;88.10;;;;;;4971319;28;20110;-92
2022/07/13 00:58:32;;;;;;;4.50;2.10;;;23.40;92.70;;;;;;4970150;28;20117;-91
2022/07/13 01:00:58;;;;;;;4.95;1.92;;;;;;;;;;4971539;28;20538;-89
2022/07/13 01:03:24;;;;;;;4.75;2.50;;;23.30;92.10;;;;;;4987143;28;20082;-89
2022/07/13 01:05:55;;;;;;;6.30;2.10;;;23.30;93.50;;;;;;4970188;28;20035;-90
2022/07/13 01:08:23;;;;;;;5.57;1.90;;;23.30;90.60;;;;;;4970544;28;20023;-91
2022/07/13 01:10:50;;;;;;;6.72;2.10;;;23.30;90.50;;;;;;4970344;28;20399;-93
2022/07/13 01:13:17;;;;;;;8.27;2.10;;;23.10;90.40;;;;;;4970376;28;20403;-91
2022/07/13 01:15:46;;;;;;;4.33;1.90;;;23.10;90.70;;;;;;4978767;28;20038;-90
2022/07/13 01:18:12;;;;;;;5.32;1.95;;;23.10;93.00;;;;;;4993657;28;20290;-89
2022/07/13 01:20:41;;;;;;;3.70;1.98;;;23.00;91.10;;;;;;4994207;28;20011;-89
2022/07/13 01:23:11;;;;;;;4.93;2.15;;;22.90;91.00;;;;;;4981599;28;20047;-91
2022/07/13 01:25:37;;;;;;;13.07;2.85;;;22.90;92.20;;;;;;4989529;28;20165;-90
2022/07/13 01:28:03;;;;;;;8.52;2.10;;;22.90;96.20;;;;;;4970238;28;20023;-92
2022/07/13 01:30:29;;;;;;;3.67;1.77;;;23.00;94.10;;;;;;4970237;28;20034;-91
2022/07/13 01:32:55;;;;;;;2.58;2.00;;;23.00;92.40;;;;;;4971018;28;20057;-91
2022/07/13 01:35:22;;;;;;;4.82;2.00;;;23.00;91.60;;;;;;4971205;28;20022;-91
2022/07/13 01:37:48;;;;;;;6.82;2.10;;;22.90;92.20;;;;;;4969439;28;20070;-91
2022/07/13 01:40:15;;;;;;;4.95;2.20;;;23.00;93.80;;;;;;4970562;28;20046;-91
2022/07/13 01:42:45;;;;;;;5.68;2.30;;;22.90;93.20;;;;;;4970931;28;20472;-92
2022/07/13 01:45:13;;;;;;;6.20;2.00;;;22.80;94.00;;;;;;4970641;28;20031;-90
2022/07/13 01:47:40;;;;;;;6.32;2.40;;;22.80;93.20;;;;;;4971997;28;20019;-92
2022/07/13 01:50:07;;;;;;;7.70;2.10;;;22.70;95.80;;;;;;4973599;28;20031;-90
2022/07/13 01:52:35;;;;;;;7.10;2.42;;;;;;;;;;4973577;28;20051;-92
2022/07/13 01:55:04;;;;;;;6.55;2.20;;;22.70;92.50;;;;;;4989834;28;20039;-91
2022/07/13 01:57:30;;;;;;;3.72;2.30;;;22.60;93.60;;;;;;4974857;28;20019;-91
2022/07/13 02:00:20;;;;;;;7.45;2.00;;;22.60;93.30;;;;;;4974109;28;20039;-92
2022/07/13 02:02:48;;;;;;;2.08;1.85;;;22.60;93.50;;;;;;4971606;28;20039;-92
2022/07/13 02:05:14;;;;;;;;;;;22.60;93.50;;;;;;4973750;28;20173;-91
2022/07/13 02:07:41;;;;;;;2.92;1.90;;;22.60;92.40;;;;;;4974446;28;19952;-93
2022/07/13 02:10:08;;;;;;;6.10;2.20;;;22.60;92.10;;;;;;4973249;28;20022;-93
2022/07/13 02:12:34;;;;;;;9.18;2.20;;;22.60;92.60;;;;;;4973794;28;20027;-92
2022/07/13 02:15:00;;;;;;;4.72;2.22;;;22.50;93.20;;;;;;4974834;28;20031;-89
2022/07/13 02:17:26;;;;;;;5.95;1.90;;;22.60;93.20;;;;;;4974753;28;20499;-90
2022/07/13 02:19:52;;;;;;;7.25;2.20;;;;;;;;;;4972931;28;20066;-89
2022/07/13 02:22:18;;;;;;;7.13;2.10;;;;;;;;;;4989638;28;20046;-92
2022/07/13 02:24:47;;;;;;;8.45;2.33;;;22.50;97.60;;;;;;4989383;28;20406;-91
2022/07/13 02:27:12;;;;;;;7.47;2.67;;;22.50;97.90;;;;;;4972683;28;20154;-91
2022/07/13 02:29:40;;;;;;;7.60;2.50;;;22.40;99.90;;;;;;4974089;28;20107;-91
2022/07/13 02:32:07;;;;;;;6.38;2.58;;;22.30;99.90;;;;;;4972768;28;20118;-91
2022/07/13 02:34:36;;;;;;;2.75;2.10;;;;;;;;;;4973753;28;20039;-91
2022/07/13 02:37:02;;;;;;;2.35;1.95;;;22.30;98.00;;;;;;4989136;28;20483;-90
2022/07/13 02:39:27;;;;;;;4.60;2.08;;;22.30;99.90;;;;;;4989459;28;20134;-91
2022/07/13 02:41:53;;;;;;;4.72;2.15;;;22.20;98.60;;;;;;4972954;28;20050;-89
2022/07/13 02:44:19;;;;;;;4.65;2.28;;;;;;;;;;4973355;28;20033;-92
2022/07/13 02:46:45;;;;;;;5.40;2.67;;;;;;;;;;4988505;28;20046;-90
2022/07/13 02:49:11;;;;;;;5.82;2.20;;;22.10;99.90;;;;;;4973281;28;20053;-92
2022/07/13 02:51:37;;;;;;;4.60;2.13;;;22.10;99.00;;;;;;4972153;28;20391;-91
2022/07/13 02:54:03;;;;;;;4.80;2.25;;;22.10;99.30;;;;;;4973177;28;20034;-90
2022/07/13 02:56:29;;;;;;;7.00;2.40;;;22.00;99.90;;;;;;4989246;28;20023;-89
2022/07/13 02:58:57;;;;;;;8.05;2.58;;;;;;;;;;4972354;28;20042;-91
2022/07/13 03:01:23;;;;;;;9.90;2.35;;;21.80;99.90;;;;;;4988522;28;20053;-90
2022/07/13 03:03:49;;;;;;;6.85;2.35;;;;;;;;;;4988987;28;20027;-89
2022/07/13 03:06:15;;;;;;;6.53;2.25;;;21.70;99.90;;;;;;4974754;28;20046;-89
2022/07/13 03:08:41;;;;;;;4.07;2.30;;;;;;;;;;4972986;28;20399;-88
2022/07/13 03:11:06;;;;;;;2.80;2.10;;;21.80;99.90;;;;;;4987925;28;20036;-90
2022/07/13 03:13:32;;;;;;;7.43;2.30;;;21.80;99.90;;;;;;4973781;28;20031;-92
2022/07/13 03:15:58;;;;;;;4.22;2.28;;;;;;;;;;4971465;28;20022;-91
2022/07/13 03:18:24;;;;;;;7.50;2.10;;;21.50;99.90;;;;;;4972671;28;20187;-89
2022/07/13 03:20:50;;;;;;;8.02;2.17;;;21.50;99.90;;;;;;4972998;28;20023;-90
2022/07/13 03:23:15;;;;;;;6.28;2.30;;;21.50;99.90;;;;;;4974049;28;20424;-92
2022/07/13 03:25:41;;;;;;;3.60;2.25;;;;;;;;;;4972145;28;20023;-91
2022/07/13 03:28:07;;;;;;;4.10;2.45;;;21.50;99.90;;;;;;4973215;28;20498;-92
2022/07/13 03:30:33;;;;;;;5.85;2.50;;;21.50;99.90;;;;;;4973545;28;20050;-91
2022/07/13 03:32:59;;;;;;;7.25;2.67;;;;;;;;;;4971657;28;20064;-90
2022/07/13 03:35:25;;;;;;;5.05;2.20;;;;;;;;;;4987680;28;20405;-91
2022/07/13 03:37:51;;;;;;;3.53;2.30;;;21.40;99.90;;;;;;4987227;28;20514;-92
2022/07/13 03:40:16;;;;;;;6.43;2.38;;;21.40;99.90;;;;;;4987463;28;20131;-89
2022/07/13 03:42:42;;;;;;;5.82;2.47;;;21.40;99.90;;;;;;4971238;28;20033;-91
2022/07/13 03:45:08;;;;;;;5.18;2.58;;;21.40;99.90;;;;;;4975772;28;20038;-93
2022/07/13 03:47:34;;;;;;;8.80;2.50;;;21.40;99.90;;;;;;4972388;28;20078;-91
2022/07/13 03:50:03;;;;;;;5.70;2.35;;;21.50;99.90;;;;;;4971551;28;20035;-93
2022/07/13 03:52:28;;;;;;;5.30;2.33;;;21.40;99.90;;;;;;4972762;28;20487;-88
2022/07/13 03:54:54;;;;;;;4.78;2.50;;;21.40;99.90;;;;;;4972354;28;20038;-90
2022/07/13 03:57:20;;;;;;;9.30;2.50;;;;;;;;;;4972487;28;20073;-91
2022/07/13 03:59:46;;;;;;;5.32;2.28;;;;;;;;;;4992610;28;20042;-90
2022/07/13 04:02:12;;;;;;;6.45;2.20;;;21.40;99.90;;;;;;4987034;28;20483;-90
2022/07/13 04:04:38;;;;;;;3.33;2.58;;;;;;;;;;4970654;28;20081;-93
2022/07/13 04:07:04;;;;;;;6.28;2.80;;;;;;;;;;4972479;28;20018;-90
2022/07/13 04:09:30;;;;;;;5.82;2.22;;;21.30;99.90;;;;;;4974698;28;20031;-90
2022/07/13 04:11:57;;;;;;;8.02;2.60;;;;;;;;;;4985454;28;20031;-89
2022/07/13 04:14:23;;;;;;;6.05;2.55;;;;;;;;;;4986183;28;20099;-90
2022/07/13 04:16:49;;;;;;;5.68;2.75;;;21.00;99.90;;;;;;4974979;28;20055;-92
2022/07/13 04:19:14;;;;;;;8.02;2.55;;;21.00;99.90;;;;;;4972485;28;20066;-88
2022/07/13 04:21:40;;;;;;;6.07;2.40;;;;;;;;;;4991513;28;20387;-92
2022/07/13 04:24:07;;;;;;;8.07;2.65;;;20.90;99.90;;;;;;4972922;28;20101;-94
2022/07/13 04:26:33;;;;;;;2.80;2.42;;;21.00;99.90;;;;;;4971526;28;20400;-92
2022/07/13 04:28:59;;;;;;;10.73;2.70;;;;;;;;;;4972016;28;20031;-91
2022/07/13 04:31:25;;;;;;;5.28;2.70;;;20.80;99.90;;;;;;4971653;28;20034;-91
2022/07/13 04:33:51;;;;;;;4.63;2.70;;;20.70;99.90;;;;;;4987073;28;20033;-89
2022/07/13 04:36:16;;;;;;;4.35;2.40;;;20.70;99.90;;;;;;4971445;28;20034;-92
2022/07/13 04:38:42;;;;;;;7.35;3.17;;;20.70;99.90;;;;;;4986665;28;20031;-90
2022/07/13 04:41:11;;;;;;;6.80;2.83;;;20.60;99.90;;;;;;4959497;28;20023;-91
2022/07/13 04:43:48;;;;;;;5.30;2.90;;;20.60;99.90;;;;;;4966122;28;20015;-92
2022/07/13 04:46:14;;;;;;;6.83;2.77;;;20.70;99.90;;;;;;4970506;28;20420;-92
2022/07/13 04:48:40;;;;;;;5.22;2.75;;;20.70;99.90;;;;;;4980394;28;20026;-91
2022/07/13 04:51:06;;;;;;;4.85;2.90;;;;;;;;;;4991351;28;20151;-91
2022/07/13 04:53:49;;;;;;;11.23;2.85;;;;;;;;;;4978802;28;20022;-90
2022/07/13 04:56:15;;;;;;;4.72;2.80;;;20.50;99.90;;;;;;4989087;28;20110;-90
2022/07/13 04:58:44;;;;;;;5.50;2.55;;;20.40;99.90;;;;;;4973921;28;20125;-91
2022/07/13 05:01:10;;;;;;;3.10;2.28;;;20.40;99.90;;;;;;4973941;28;20023;-90
2022/07/13 05:03:36;;;;;;;9.75;2.75;;;20.40;99.90;;;;;;4983678;28;20479;-89
2022/07/13 05:06:02;;;;;;;6.88;2.53;;;20.40;99.90;;;;;;4975487;28;20090;-92
2022/07/13 05:08:31;;;;;;;5.88;3.00;;;20.50;99.90;;;;;;4979626;28;20413;-90
2022/07/13 05:10:57;;;;;;;7.05;2.88;;;20.40;99.90;;;;;;4971456;28;20027;-91
2022/07/13 05:13:25;;;;;;;6.78;2.85;;;20.40;99.90;;;;;;4973328;28;20573;-89
2022/07/13 05:15:51;;;;;;;5.70;2.97;;;;;;;;;;4988326;28;20447;-90
2022/07/13 05:18:16;;;;;;;9.65;3.00;;;20.40;99.90;;;;;;4993176;28;20042;-92
2022/07/13 05:20:42;;;;;;;13.23;3.20;;;;;;;;;;4994204;28;20030;-90
2022/07/13 05:23:08;;;;;;;6.45;3.10;;;20.20;99.90;;;;;;4991070;28;20070;-92
2022/07/13 05:25:34;;;;;;;6.40;2.80;;;20.20;99.90;;;;;;4988655;28;20062;-90
2022/07/13 05:28:03;;;;;;;6.10;3.10;;;20.10;99.90;;;;;;4984092;28;20068;-91
2022/07/13 05:30:29;;;;;;;8.40;2.90;;;20.10;99.90;;;;;;4984211;28;20031;-90
2022/07/13 05:32:55;;;;;;;4.80;2.80;;;20.20;99.90;;;;;;4986056;28;20085;-90
2022/07/13 05:35:21;;;;;;;5.13;2.80;;;20.30;99.90;;;;;;4997368;28;20042;-93
2022/07/13 05:37:47;;;;;;;6.45;3.13;;;20.30;99.90;;;;;;4987836;28;20038;-91
2022/07/13 05:40:13;;;;;;;6.05;3.10;;;20.20;99.90;;;;;;4994151;28;20119;-88
2022/07/13 05:42:40;;;;;;;3.70;2.90;;;20.10;99.90;;;;;;4995768;28;20035;-87
2022/07/13 05:45:06;;;;;;;9.73;3.22;;;20.20;99.90;;;;;;4976818;28;20479;-87
2022/07/13 05:47:35;;;;;;;7.18;2.85;;;20.20;99.90;;;;;;4976359;28;20014;-90
2022/07/13 05:50:45;;;;;;;;;;;;;;;;;;;;;
2022/07/13 05:53:41;;;;;;;;;;;;;;;;;;;;;
2022/07/13 05:56:17;;;;;;;7.90;2.97;;;20.50;99.90;;;;;;4976694;28;20045;-91
2022/07/13 05:59:33;;;;;;;;;;;;;;;;;;;;;
2022/07/13 06:02:01;;;;;;;8.60;2.95;;;20.50;99.90;;;;;;4978941;28;20039;-88
2022/07/13 06:07:39;;;;;;;6.00;2.90;;;20.80;99.90;;;;;;4938169;29;20032;-88
2022/07/13 06:10:08;;;;;;;4.38;2.53;;;20.90;99.90;;;;;;4979614;28;20069;-90
2022/07/13 06:12:39;;;;;;;6.50;2.50;;;21.00;99.90;;;;;;4996424;28;20047;-89
2022/07/13 06:15:13;;;;;;;6.25;2.78;;;21.10;99.90;;;;;;4984522;28;20030;-88
2022/07/13 06:17:40;;;;;;;9.40;3.20;;;21.20;99.90;;;;;;4980865;28;20507;-89
2022/07/13 06:20:14;;;;;;;4.78;2.80;;;21.30;99.90;;;;;;4981040;28;20042;-89
2022/07/13 06:22:43;;;;;;;7.22;2.83;;;21.30;99.90;;;;;;4992552;28;20395;-88
2022/07/13 06:25:26;;;;;;;9.40;2.80;;;;;;;;;;4973739;28;20115;-87
2022/07/13 06:27:52;;;;;;;11.93;2.90;;;;;;;;;;4972008;28;20022;-88
2022/07/13 06:30:18;;;;;;;5.03;2.72;;;;;;;;;;4969564;28;20031;-89
2022/07/13 06:32:44;;;;;;;6.88;3.20;;;21.50;99.90;;;;;;4988250;28;20023;-90
2022/07/13 06:35:12;;;;;;;5.30;2.80;;;21.50;99.90;;;;;;4988650;28;20050;-87
2022/07/13 06:37:37;;;;;;;;;;;21.50;99.90;;;;;;4988700;28;20035;-92
2022/07/13 06:40:04;;;;;;;6.85;2.75;;;21.60;99.90;;;;;;4973157;28;20097;-86
2022/07/13 06:42:30;;;;;;;5.18;3.00;;;21.70;99.90;;;;;;4988227;28;20039;-88
2022/07/13 06:44:56;;;;;;;5.50;2.40;;;;;;;;;;4981186;28;20034;-88
2022/07/13 06:47:22;;;;;;;5.15;2.80;;;21.90;99.90;;;;;;5010693;28;20031;-86
2022/07/13 06:49:47;;;;;;;5.03;2.65;;;22.00;99.90;;;;;;5010024;28;20066;-87
2022/07/13 06:52:13;;;;;;;5.03;2.60;;;22.10;99.90;;;;;;4992664;28;20404;-87
2022/07/13 06:54:39;;;;;;;7.25;2.65;;;;;;;;;;4991040;28;20030;-87
2022/07/13 06:57:05;;;;;;;4.55;2.70;;;22.20;99.90;;;;;;4972581;28;20218;-87
2022/07/13 06:59:31;;;;;;;10.60;2.90;;;22.30;99.90;;;;;;4972358;28;20034;-88
2022/07/13 07:01:57;;;;;;;9.05;2.60;;;22.40;99.90;;;;;;4972423;28;20023;-88
2022/07/13 07:04:23;;;;;;;8.60;2.83;;;;;;;;;;5005968;28;20031;-90
2022/07/13 07:06:48;;;;;;;6.45;2.70;;;22.40;99.90;;;;;;4999852;28;20023;-88
2022/07/13 07:09:15;;;;;;;5.47;2.80;;;22.40;99.90;;;;;;4970922;28;20085;-89
2022/07/13 07:11:44;;;;;;;4.43;2.75;;;22.50;99.90;;;;;;4970786;28;20043;-88
2022/07/13 07:14:10;;;;;;;6.35;3.20;;;22.60;99.90;;;;;;4985724;28;20027;-88
2022/07/13 07:16:37;;;;;;;9.50;2.78;;;22.60;99.90;;;;;;4969420;28;20037;-87
2022/07/13 07:19:03;;;;;;;3.72;2.70;;;22.70;99.90;;;;;;4970503;28;20054;-88
2022/07/13 07:21:29;;;;;;;6.03;2.70;;;22.80;99.90;;;;;;4970609;28;20035;-89
2022/07/13 07:23:58;;;;;;;4.50;2.67;;;22.90;99.90;;;;;;4980613;28;20023;-89
2022/07/13 07:26:23;;;;;;;9.63;3.03;;;23.00;99.90;;;;;;4969746;28;20023;-89
2022/07/13 07:28:49;;;;;;;4.95;2.60;;;23.20;99.90;;;;;;4971111;28;20038;-89
2022/07/13 07:31:15;;;;;;;4.97;2.80;;;23.30;99.90;;;;;;4986059;28;20407;-87
2022/07/13 07:33:41;;;;;;;7.68;2.80;;;23.30;99.90;;;;;;4986897;28;20026;-89
2022/07/13 07:36:07;;;;;;;3.92;2.50;;;23.30;99.90;;;;;;4970589;28;20019;-88
2022/07/13 07:38:33;;;;;;;6.18;2.88;;;;;;;;;;4992060;28;20473;-88
2022/07/13 07:40:59;;;;;;;6.95;2.53;;;23.40;99.90;;;;;;4983957;28;20506;-89
2022/07/13 07:43:25;;;;;;;4.95;2.40;;;23.60;99.90;;;;;;4969125;28;20062;-90
2022/07/13 07:45:52;;;;;;;6.00;2.60;;;23.70;99.90;;;;;;4968702;28;20027;-89
2022/07/13 07:48:17;;;;;;;10.13;2.33;;;23.80;99.90;;;;;;4970404;28;20019;-89
2022/07/13 07:50:43;;;;;;;9.13;2.40;;;23.90;99.90;;;;;;4970047;28;20049;-89
2022/07/13 07:53:09;;;;;;;5.15;2.70;;;24.00;99.90;;;;;;4968890;28;20509;-89
2022/07/13 07:55:35;;;;;;;3.47;2.63;;;24.00;99.90;;;;;;4969302;28;20027;-89
2022/07/13 07:58:00;;;;;;;6.57;2.40;;;24.20;99.90;;;;;;4986566;28;20042;-89
2022/07/13 08:00:26;;;;;;;6.10;2.70;;;24.30;99.90;;;;;;4968952;28;20128;-90
2022/07/13 08:02:52;;;;;;;5.45;2.65;;;;;;;;;;4984616;28;20031;-88
2022/07/13 08:05:18;;;;;;;5.32;2.60;;;24.40;99.90;;;;;;4984349;28;20521;-86
2022/07/13 08:07:46;;;;;;;6.28;3.08;;;24.50;99.90;;;;;;4972052;28;20543;-95
2022/07/13 08:10:13;;;;;;;4.63;2.50;;;24.60;99.90;;;;;;4971867;28;20095;-92
2022/07/13 08:12:39;;;;;;;3.65;2.42;;;24.70;99.90;;;;;;4971028;28;20030;-90
2022/07/13 08:15:07;;;;;;;6.25;2.33;;;24.80;99.90;;;;;;4970693;28;20042;-93
2022/07/13 08:17:36;;;;;;;6.50;2.60;;;24.90;99.90;;;;;;4970717;28;20015;-86
2022/07/13 08:20:04;;;;;;;3.22;2.38;;;25.00;99.90;;;;;;4981813;28;20034;-87
2022/07/13 08:22:29;;;;;;;6.65;2.50;;;25.10;99.90;;;;;;4967992;28;20023;-86
2022/07/13 08:24:55;;;;;;;5.82;2.70;;;25.20;99.90;;;;;;4970109;28;20115;-92
2022/07/13 08:27:21;;;;;;;5.18;2.50;;;25.40;99.90;;;;;;4972912;28;20030;-85
2022/07/13 08:29:46;;;;;;;3.47;2.28;;;25.60;99.90;;;;;;4973747;28;20023;-85
2022/07/13 08:32:12;;;;;;;4.20;2.30;;;25.70;99.90;;;;;;4970645;28;20384;-87
2022/07/13 08:40:09;;;;;;;6.90;2.30;;;26.00;99.90;;;;;;4983644;28;20526;-87
2022/07/13 08:42:36;;;;;;;2.80;2.03;;;26.20;99.90;;;;;;4970577;28;20050;-87
2022/07/13 08:45:02;;;;;;;5.50;2.63;;;26.20;99.90;;;;;;4971849;28;20030;-93
2022/07/13 08:47:30;;;;;;;3.80;2.42;;;26.30;99.90;;;;;;4975669;28;20019;-88
2022/07/13 08:50:07;;;;;;;4.30;2.20;;;26.40;99.90;;;;;;4989152;28;20494;-85
2022/07/13 08:52:40;;;;;;;4.97;2.42;;;26.50;99.90;;;;;;4976668;28;20061;-88
2022/07/13 08:55:06;;;;;;;9.32;2.10;;;26.50;99.90;;;;;;4971405;28;20035;-88
2022/07/13 08:57:37;;;;;;;9.05;2.35;;;26.70;99.90;;;;;;4971151;28;20027;-88
2022/07/13 09:00:07;;;;;;;5.18;2.30;;;26.60;99.90;;;;;;4971251;28;20114;-91
2022/07/13 09:02:33;;;;;;;5.40;2.63;;;26.70;99.90;;;;;;4975525;28;20022;-93
2022/07/13 09:05:04;;;;;;;5.28;1.90;;;26.60;99.90;;;;;;4974647;28;20030;-89
2022/07/13 09:07:30;;;;;;;7.97;2.20;;;26.80;99.90;;;;;;4988094;28;20022;-86
2022/07/13 09:09:56;;;;;;;8.02;2.47;;;27.00;99.90;;;;;;4986874;28;20049;-89
2022/07/13 09:12:26;;;;;;;4.55;2.10;;;27.10;99.90;;;;;;4972661;28;20395;-87
2022/07/13 09:15:06;;;;;;;3.88;2.20;;;27.20;99.90;;;;;;4973276;28;20027;-89
2022/07/13 09:17:34;;;;;;;4.05;1.92;;;27.30;99.20;;;;;;4972597;28;20015;-86
2022/07/13 09:20:14;;;;;;;3.83;2.13;;;27.30;99.40;;;;;;4969848;28;20074;-89
2022/07/13 09:22:55;;;;;;;2.80;2.00;;;27.40;99.90;;;;;;4969844;28;20521;-88
2022/07/13 09:25:32;;;;;;;9.38;2.72;;;27.60;99.20;;;;;;4970333;28;20027;-88
2022/07/13 09:28:09;;;;;;;3.85;1.98;;;27.50;92.00;;;;;;4969471;28;20061;-88
2022/07/13 09:30:42;;;;;;;7.43;1.90;;;27.60;94.10;;;;;;4972130;28;20031;-87
2022/07/13 09:33:08;;;;;;;8.70;2.00;;;27.60;94.30;;;;;;4988802;28;20318;-88
2022/07/13 09:35:42;;;;;;;6.07;2.13;;;27.80;94.20;;;;;;4988875;28;20026;-91
2022/07/13 09:38:09;;;;;;;4.97;2.17;;;27.70;93.90;;;;;;5002514;28;20254;-89
2022/07/13 09:40:35;;;;;;;3.78;2.03;;;27.80;90.40;;;;;;4990257;28;20042;-86
2022/07/13 09:48:29;;;;;;;3.38;1.83;;;28.10;91.60;;;;;;4967605;28;20042;-91
2022/07/13 09:50:55;;;;;;;5.28;2.00;;;28.10;92.20;;;;;;4971184;28;20019;-85
2022/07/13 09:53:28;;;;;;;4.97;1.98;;;28.30;89.60;;;;;;4970644;28;20054;-85
2022/07/13 09:55:54;;;;;;;5.47;1.85;;;28.30;86.70;;;;;;4970192;28;20093;-88
2022/07/13 09:58:30;;;;;;;6.82;2.08;;;28.40;87.70;;;;;;4986885;28;20027;-85
2022/07/13 10:00:57;;;;;;;8.18;2.28;;;28.40;88.20;;;;;;4971286;28;20047;-89
2022/07/13 10:03:24;;;;;;;3.47;1.80;;;28.50;90.50;;;;;;4972134;28;20519;-84
2022/07/13 10:05:56;;;;;;;6.90;1.70;;;28.40;82.60;;;;;;4990165;28;20406;-92
2022/07/13 10:08:22;;;;;;;3.30;1.80;;;28.40;83.00;;;;;;4980898;28;20022;-84
2022/07/13 10:10:52;;;;;;;12.90;2.60;;;28.50;83.00;;;;;;4980013;28;20023;-85
2022/07/13 10:13:19;;;;;;;8.10;2.03;;;28.70;85.00;;;;;;4976324;28;20030;-88
2022/07/13 10:15:46;;;;;;;11.27;2.10;;;28.80;82.70;;;;;;4990204;28;20027;-90
2022/07/13 10:18:28;;;;;;;2.00;1.70;;;28.70;74.80;;;;;;4975169;28;20035;-85
2022/07/13 10:21:04;;;;;;;6.80;2.00;;;28.80;76.80;;;;;;4971306;28;20266;-87
2022/07/13 10:23:40;;;;;;;3.33;1.50;;;28.90;64.80;;;;;;4969946;28;20027;-94
2022/07/13 10:26:19;;;;;;;4.50;1.80;;;28.90;63.40;;;;;;4972027;28;20040;-85
2022/07/13 10:29:07;;;;;;;3.33;1.65;;;28.80;66.70;;;;;;4969853;28;20501;-87
2022/07/13 10:31:36;;;;;;;7.82;1.85;;;28.90;69.60;;;;;;4973737;28;20014;-91
2022/07/13 10:34:02;;;;;;;4.25;1.70;;;29.10;67.90;;;;;;4973688;28;20027;-92
2022/07/13 10:36:56;;;;;;;7.27;2.10;;;29.10;70.10;;;;;;4973468;28;20110;-91
2022/07/13 10:39:23;;;;;;;5.18;1.90;;;29.00;66.40;;;;;;4974682;28;20046;-87
2022/07/13 10:42:02;;;;;;;;;;;29.00;69.20;;;;;;4989873;28;20027;-92
2022/07/13 10:44:42;;;;;;;4.93;2.10;;;29.20;68.80;;;;;;4973654;28;19913;-88
2022/07/13 10:47:11;;;;;;;8.27;1.88;;;29.30;69.10;;;;;;4974010;28;20027;-87
2022/07/13 10:49:46;;;;;;;2.63;1.80;;;29.50;63.70;;;;;;4967787;28;20106;-89
2022/07/13 10:52:22;;;;;;;5.57;1.90;;;29.60;61.80;;;;;;4963991;28;20042;-91
2022/07/13 10:55:07;;;;;;;3.35;1.70;;;29.40;64.70;;;;;;4973422;28;20041;-88
2022/07/13 10:57:34;;;;;;;4.03;1.92;;;29.50;64.40;;;;;;4973273;28;20042;-93
2022/07/13 11:00:07;;;;;;;3.90;1.70;;;29.30;64.30;;;;;;4973577;28;20051;-84
2022/07/13 11:02:45;;;;;;;4.13;1.80;;;29.50;65.00;;;;;;4971162;28;20014;-89
2022/07/13 11:05:11;;;;;;;3.55;1.70;;;29.70;62.90;;;;;;4987359;28;20033;-91
2022/07/13 11:07:42;;;;;;;5.75;2.15;;;29.90;65.20;;;;;;4972832;28;20019;-82
2022/07/13 11:10:24;;;;;;;3.53;1.73;;;29.90;60.30;;;;;;4973137;28;20195;-93
2022/07/13 11:13:09;;;;;;;4.85;1.83;;;29.80;59.60;;;;;;4973909;28;20483;-93
2022/07/13 11:15:44;;;;;;;5.75;1.77;;;29.80;58.90;;;;;;4972868;28;20098;-92
2022/07/13 11:18:22;;;;;;;4.10;1.85;;;29.80;61.80;;;;;;4971801;28;20027;-90
2022/07/13 11:21:14;;;;;;;3.85;1.80;;;29.90;58.60;;;;;;4971914;28;20114;-92
2022/07/13 11:26:53;;;;;;;4.72;1.70;;;30.10;55.60;;;;;;4972798;28;20097;-84
2022/07/13 11:29:44;;;;;;;4.18;1.70;;;30.10;55.00;;;;;;4972374;28;20027;-93
2022/07/13 11:32:10;;;;;;;4.82;1.90;;;30.20;59.20;;;;;;4969250;28;20031;-91
2022/07/13 11:34:36;;;;;;;11.00;1.65;;;30.30;56.00;;;;;;4971897;28;20407;-92
2022/07/13 11:37:03;;;;;;;7.13;1.63;;;30.30;55.00;;;;;;4971867;28;20113;-84
2022/07/13 11:39:34;;;;;;;7.17;1.70;;;30.30;57.90;;;;;;4971541;28;20031;-85
2022/07/13 11:42:02;;;;;;;5.30;1.85;;;30.30;55.90;;;;;;4971306;28;20270;-85
2022/07/13 11:44:32;;;;;;;4.95;1.70;;;30.40;54.00;;;;;;4970911;28;20019;-93
2022/07/13 11:47:09;;;;;;;7.13;1.60;;;30.30;53.90;;;;;;4970930;28;20031;-84
2022/07/13 11:49:49;;;;;;;11.15;1.80;;;30.30;53.10;;;;;;4972609;28;20062;-91
2022/07/13 11:52:18;;;;;;;7.47;1.90;;;30.30;54.80;;;;;;4979914;28;20288;-91
2022/07/13 11:55:03;;;;;;;3.90;1.60;;;30.30;55.30;;;;;;4991382;28;20109;-84
2022/07/13 11:57:31;;;;;;;5.28;1.90;;;30.40;56.70;;;;;;4991105;28;20022;-84
2022/07/13 12:00:06;;;;;;;17.73;2.47;;;30.40;54.80;;;;;;4982791;28;20035;-90
2022/07/13 12:02:32;;;;;;;3.20;1.40;;;30.40;52.70;;;;;;4970569;28;20034;-83
2022/07/13 12:04:58;;;;;;;5.60;1.70;;;30.30;51.10;;;;;;4972755;28;20034;-93
2022/07/13 12:07:28;;;;;;;5.30;1.60;;;30.40;53.50;;;;;;4975714;28;20027;-84
2022/07/13 12:10:02;;;;;;;5.93;1.55;;;30.40;51.60;;;;;;4973207;28;20029;-87
2022/07/13 12:12:35;;;;;;;6.32;1.70;;;30.60;52.40;;;;;;4972854;28;20029;-89
2022/07/13 12:15:01;;;;;;;4.65;1.60;;;30.70;51.70;;;;;;4972569;28;20031;-88
2022/07/13 12:17:28;;;;;;;4.30;1.70;;;30.70;46.50;;;;;;4971925;28;20487;-87
2022/07/13 12:20:31;;;;;;;3.55;1.70;;;31.10;48.80;;;;;;4981948;28;20046;-83
2022/07/13 12:22:57;;;;;;;3.38;1.70;;;31.00;51.30;;;;;;4976067;28;20085;-86
2022/07/13 12:25:33;;;;;;;3.58;1.65;;;31.00;50.00;;;;;;4975986;28;20023;-85
2022/07/13 12:28:01;;;;;;;3.35;1.63;;;31.00;49.00;;;;;;4976440;28;20003;-84
2022/07/13 12:30:28;;;;;;;5.75;1.70;;;31.20;48.20;;;;;;4972437;28;20107;-84
2022/07/13 12:33:09;;;;;;;9.85;1.77;;;31.20;45.80;;;;;;4970979;28;20106;-84
2022/07/13 12:35:37;;;;;;;5.47;1.80;;;31.20;43.40;;;;;;4970356;28;20086;-94
2022/07/13 12:38:08;;;;;;;9.07;1.73;;;31.20;42.40;;;;;;4970689;28;20082;-85
2022/07/13 12:40:49;;;;;;;4.30;1.67;;;31.40;43.50;;;;;;4970925;28;20054;-87
2022/07/13 12:43:25;;;;;;;7.85;2.10;;;31.40;46.80;;;;;;4964758;28;20110;-94
2022/07/13 12:46:00;;;;;;;12.83;1.87;;;31.60;44.40;;;;;;4970580;28;20402;-85
2022/07/13 12:48:30;;;;;;;7.78;1.90;;;31.60;42.20;;;;;;4970906;28;20050;-83
2022/07/13 12:51:09;;;;;;;7.03;1.75;;;31.70;42.60;;;;;;4970891;28;20093;-87
2022/07/13 12:53:54;;;;;;;3.88;1.70;;;31.60;41.70;;;;;;4970416;28;20499;-85
2022/07/13 12:56:23;;;;;;;5.68;1.67;;;31.60;40.00;;;;;;4970144;28;20520;-83
2022/07/13 12:58:58;;;;;;;7.65;1.50;;;31.50;40.40;;;;;;4970294;28;20077;-85
2022/07/13 13:01:27;;;;;;;5.10;1.58;;;31.60;39.20;;;;;;4957555;28;20023;-86
2022/07/13 13:03:53;;;;;;;7.18;1.60;;;31.50;36.00;;;;;;4967200;28;20031;-90
2022/07/13 13:06:19;;;;;;;8.00;1.90;;;31.30;38.70;;;;;;4969993;28;20037;-93
2022/07/13 13:08:44;;;;;;;4.32;1.50;;;31.30;39.50;;;;;;4969550;28;20399;-85
2022/07/13 13:11:10;;;;;;;4.95;1.63;;;31.40;39.70;;;;;;4970135;28;20047;-83
2022/07/13 13:13:36;;;;;;;3.45;1.50;;;31.60;37.70;;;;;;4968794;28;20442;-87
2022/07/13 13:16:02;;;;;;;4.00;1.50;;;31.60;39.40;;;;;;4964710;28;20479;-83
2022/07/13 13:18:37;;;;;;;1.70;1.60;;;32.00;37.80;;;;;;4969539;28;20023;-92
2022/07/13 13:21:03;;;;;;;4.20;1.50;;;31.80;37.70;;;;;;4983017;28;20038;-85
2022/07/13 13:23:30;;;;;;;5.50;1.65;;;32.10;36.40;;;;;;4985023;28;20031;-91
2022/07/13 13:25:55;;;;;;;6.63;1.70;;;31.80;35.40;;;;;;4967370;28;20035;-83
2022/07/13 13:28:25;;;;;;;4.13;1.70;;;31.70;37.60;;;;;;4968965;28;20030;-88
2022/07/13 13:30:51;;;;;;;4.57;1.52;;;32.00;37.40;;;;;;4985056;28;20031;-89